Time;durP1;ratioP1;P1;durP2;ratioP2;P2;SDS_P1;SDS_P2;PMS_P1;PMS_P2;Temp;Humidity;BMP_temperature;BMP_pressure;BME280_temperature;BME280_humidity;BME280_pressure;Samples;Min_cycle;Max_cycle;Signal;HPM_P1;HPM_P2
2021/05/21 00:00:39;;;;;;;4.38;2.70;;;11.20;99.90;;;;;;5068320;28;20038;-68
2021/05/21 00:03:05;;;;;;;6.50;3.10;;;11.20;99.90;;;;;;5093473;28;20051;-67
2021/05/21 00:05:31;;;;;;;5.00;3.13;;;11.10;99.90;;;;;;5079247;28;20153;-69
2021/05/21 00:07:58;;;;;;;6.32;3.20;;;11.10;99.90;;;;;;5077063;28;20475;-70
2021/05/21 00:10:29;;;;;;;6.55;2.78;;;11.00;99.90;;;;;;5079851;28;20034;-69
2021/05/21 00:12:57;;;;;;;5.28;2.95;;;11.00;99.90;;;;;;5079109;28;20032;-70
2021/05/21 00:15:23;;;;;;;5.53;3.20;;;11.00;99.90;;;;;;5060977;28;20055;-68
2021/05/21 00:17:48;;;;;;;5.35;3.17;;;11.00;99.90;;;;;;5071017;28;20124;-68
2021/05/21 00:20:14;;;;;;;5.28;2.83;;;11.00;99.90;;;;;;5067326;28;20492;-67
2021/05/21 00:22:45;;;;;;;4.65;2.63;;;11.00;99.90;;;;;;5055064;28;20052;-68
2021/05/21 00:25:13;;;;;;;4.68;2.80;;;11.00;99.90;;;;;;5070737;28;20044;-68
2021/05/21 00:27:39;;;;;;;4.88;2.60;;;10.90;99.90;;;;;;5070130;28;20369;-68
2021/05/21 00:30:08;;;;;;;6.60;2.80;;;11.00;99.90;;;;;;5072308;28;20028;-68
2021/05/21 00:32:35;;;;;;;5.50;2.90;;;11.00;99.90;;;;;;5077470;28;20895;-68
2021/05/21 00:35:01;;;;;;;3.90;2.65;;;11.00;99.90;;;;;;5079181;28;20108;-68
2021/05/21 00:37:29;;;;;;;4.75;2.85;;;11.00;99.90;;;;;;5076705;28;20139;-67
2021/05/21 00:39:54;;;;;;;5.28;2.90;;;11.00;99.90;;;;;;5079415;28;20032;-68
2021/05/21 00:42:20;;;;;;;5.28;3.40;;;11.00;99.90;;;;;;5079377;28;20036;-67
2021/05/21 00:44:53;;;;;;;4.65;2.80;;;11.00;99.90;;;;;;5095033;28;20024;-67
2021/05/21 00:47:19;;;;;;;5.68;2.80;;;11.10;99.90;;;;;;5069705;28;20050;-68
2021/05/21 00:49:45;;;;;;;6.32;3.25;;;11.10;99.90;;;;;;5070542;28;20438;-67
2021/05/21 00:52:13;;;;;;;6.47;2.95;;;11.10;99.90;;;;;;5069690;28;20025;-68
2021/05/21 00:54:43;;;;;;;5.32;2.63;;;11.10;99.90;;;;;;5068832;28;20024;-67
2021/05/21 00:57:11;;;;;;;6.18;2.90;;;11.10;99.90;;;;;;5068646;28;20039;-68
2021/05/21 00:59:39;;;;;;;4.75;2.80;;;11.10;99.90;;;;;;5068753;28;20408;-69
2021/05/21 01:02:06;;;;;;;4.93;2.83;;;11.20;99.90;;;;;;5071605;28;20576;-68
2021/05/21 01:04:32;;;;;;;5.68;2.90;;;11.20;99.90;;;;;;5079025;28;20024;-68
2021/05/21 01:06:57;;;;;;;6.65;2.92;;;11.20;99.90;;;;;;5072578;28;20457;-68
2021/05/21 01:09:26;;;;;;;4.72;3.05;;;11.30;99.90;;;;;;5069930;28;20525;-68
2021/05/21 01:11:51;;;;;;;5.35;3.25;;;11.30;99.90;;;;;;5069293;28;20021;-68
2021/05/21 01:14:17;;;;;;;5.68;3.25;;;11.30;99.90;;;;;;5078015;28;20028;-68
2021/05/21 01:16:45;;;;;;;4.70;2.97;;;11.30;99.90;;;;;;5075476;28;20020;-68
2021/05/21 01:19:13;;;;;;;4.72;2.70;;;11.40;99.90;;;;;;5077118;28;20062;-67
2021/05/21 01:21:38;;;;;;;6.47;3.20;;;11.40;99.90;;;;;;5078294;28;20173;-66
2021/05/21 01:24:08;;;;;;;5.47;3.47;;;11.30;99.90;;;;;;5076180;28;20543;-68
2021/05/21 01:26:38;;;;;;;6.03;2.90;;;11.30;99.90;;;;;;5070819;28;20044;-68
2021/05/21 01:29:06;;;;;;;5.22;2.67;;;11.40;99.90;;;;;;5069886;28;20416;-68
2021/05/21 01:31:32;;;;;;;4.95;3.08;;;11.40;99.90;;;;;;5067989;28;20021;-68
2021/05/21 01:34:02;;;;;;;4.50;3.28;;;11.40;99.90;;;;;;5068138;28;20025;-68
2021/05/21 01:36:30;;;;;;;5.63;3.00;;;11.40;99.90;;;;;;5075365;28;20101;-67
2021/05/21 01:39:00;;;;;;;6.93;3.00;;;11.40;99.90;;;;;;5075309;28;20028;-68
2021/05/21 01:41:26;;;;;;;4.78;2.67;;;11.50;99.90;;;;;;5058540;28;20042;-70
2021/05/21 01:43:57;;;;;;;4.68;2.28;;;11.50;99.90;;;;;;5068539;28;20036;-70
2021/05/21 01:46:22;;;;;;;4.53;2.50;;;11.50;99.90;;;;;;5072611;28;20121;-69
2021/05/21 01:48:50;;;;;;;4.85;2.47;;;11.40;99.90;;;;;;5077563;28;20083;-69
2021/05/21 01:51:16;;;;;;;4.95;2.60;;;11.40;99.90;;;;;;5076687;28;20381;-69
2021/05/21 01:53:42;;;;;;;6.63;2.80;;;11.50;99.90;;;;;;5075395;28;20025;-68
2021/05/21 01:56:10;;;;;;;5.00;2.50;;;11.50;99.90;;;;;;5075415;28;20361;-70
2021/05/21 01:58:37;;;;;;;6.05;2.70;;;11.50;99.90;;;;;;5073779;28;20032;-70
2021/05/21 02:01:06;;;;;;;4.40;2.80;;;11.40;99.90;;;;;;5069137;28;21901;-70
2021/05/21 02:03:36;;;;;;;4.40;2.50;;;11.40;99.90;;;;;;5072673;28;20032;-70
2021/05/21 02:06:04;;;;;;;4.70;2.40;;;11.40;99.90;;;;;;5074287;28;20041;-68
2021/05/21 02:08:29;;;;;;;5.18;2.35;;;11.40;99.90;;;;;;5067773;28;20020;-68
2021/05/21 02:10:59;;;;;;;5.25;2.38;;;11.40;99.90;;;;;;5068666;28;20480;-68
2021/05/21 02:13:25;;;;;;;4.22;2.40;;;11.40;99.90;;;;;;5066215;28;20052;-68
2021/05/21 02:15:53;;;;;;;4.45;2.20;;;11.30;99.90;;;;;;5067322;28;20124;-68
2021/05/21 02:18:18;;;;;;;3.72;2.30;;;11.30;99.90;;;;;;5069409;28;20120;-68
2021/05/21 02:20:44;;;;;;;4.03;2.20;;;11.30;99.90;;;;;;5066782;28;20043;-68
2021/05/21 02:23:10;;;;;;;3.75;2.15;;;11.20;99.90;;;;;;5070074;28;20558;-69
2021/05/21 02:25:38;;;;;;;3.95;2.30;;;11.30;99.90;;;;;;5072273;28;20438;-70
2021/05/21 02:28:08;;;;;;;3.88;2.10;;;11.30;99.90;;;;;;5075044;28;20043;-69
2021/05/21 02:30:34;;;;;;;3.45;1.98;;;11.30;99.90;;;;;;5070968;28;20020;-69
2021/05/21 02:32:59;;;;;;;3.42;1.98;;;11.30;99.90;;;;;;5078005;28;20055;-69
2021/05/21 02:35:25;;;;;;;4.80;2.10;;;11.20;99.90;;;;;;5079962;28;20454;-71
2021/05/21 02:37:51;;;;;;;4.30;2.00;;;11.20;99.90;;;;;;5079562;28;20038;-70
2021/05/21 02:40:19;;;;;;;4.10;2.13;;;11.20;99.90;;;;;;5080040;28;20032;-70
2021/05/21 02:42:45;;;;;;;3.63;2.10;;;11.20;99.90;;;;;;5079363;28;20035;-68
2021/05/21 02:45:11;;;;;;;4.40;2.10;;;11.20;99.90;;;;;;5080748;28;20040;-69
2021/05/21 02:47:39;;;;;;;5.50;2.47;;;11.20;99.90;;;;;;5072449;28;20040;-68
2021/05/21 02:50:06;;;;;;;4.88;2.10;;;11.10;99.90;;;;;;5070027;28;20033;-68
2021/05/21 02:52:36;;;;;;;4.75;2.28;;;11.10;99.90;;;;;;5070104;28;20028;-70
2021/05/21 02:55:06;;;;;;;6.30;2.13;;;11.10;99.90;;;;;;5054022;28;20036;-70
2021/05/21 02:57:31;;;;;;;3.75;2.13;;;11.10;99.90;;;;;;5073082;28;20085;-69
2021/05/21 02:59:59;;;;;;;5.47;2.50;;;11.10;99.90;;;;;;5070508;28;20040;-68
2021/05/21 03:02:25;;;;;;;3.65;2.20;;;11.10;99.90;;;;;;5073283;28;20097;-70
2021/05/21 03:04:53;;;;;;;3.67;2.00;;;11.10;99.90;;;;;;5072567;28;20033;-68
2021/05/21 03:07:21;;;;;;;4.95;2.47;;;11.10;99.90;;;;;;5074488;28;20024;-68
2021/05/21 03:09:47;;;;;;;4.28;2.33;;;11.10;99.90;;;;;;5081956;28;20063;-67
2021/05/21 03:12:17;;;;;;;5.18;2.60;;;11.00;99.90;;;;;;5076879;28;20197;-68
2021/05/21 03:14:43;;;;;;;4.68;2.30;;;11.10;99.90;;;;;;5070815;28;20360;-68
2021/05/21 03:17:11;;;;;;;5.13;2.53;;;11.10;99.90;;;;;;5072140;28;20020;-68
2021/05/21 03:19:36;;;;;;;4.88;2.63;;;11.10;99.90;;;;;;5089413;28;20205;-68
2021/05/21 03:22:04;;;;;;;6.13;2.42;;;11.10;99.90;;;;;;5078738;28;20722;-68
2021/05/21 03:24:32;;;;;;;4.90;2.55;;;11.00;99.90;;;;;;5074196;28;20068;-70
2021/05/21 03:26:58;;;;;;;4.82;2.70;;;11.00;99.90;;;;;;5072203;28;20032;-70
2021/05/21 03:29:26;;;;;;;4.70;2.50;;;11.00;99.90;;;;;;5071020;28;20405;-70
2021/05/21 03:31:56;;;;;;;4.75;2.40;;;11.00;99.90;;;;;;5069759;28;20115;-69
2021/05/21 03:34:24;;;;;;;4.07;2.22;;;11.00;99.90;;;;;;5072376;28;20028;-70
2021/05/21 03:36:52;;;;;;;5.13;2.40;;;10.90;99.90;;;;;;5071678;28;20020;-70
2021/05/21 03:39:24;;;;;;;5.07;2.22;;;11.00;99.90;;;;;;5071654;28;21925;-70
2021/05/21 03:41:52;;;;;;;5.65;2.50;;;11.00;99.90;;;;;;5071040;28;20028;-69
2021/05/21 03:44:18;;;;;;;5.47;2.55;;;11.00;99.90;;;;;;5073182;28;20646;-69
2021/05/21 03:46:46;;;;;;;4.82;2.40;;;11.00;99.90;;;;;;5079576;28;20028;-69
2021/05/21 03:49:13;;;;;;;4.22;2.40;;;11.00;99.90;;;;;;5076985;28;20500;-70
2021/05/21 03:51:38;;;;;;;4.10;2.30;;;11.00;99.90;;;;;;5070856;28;20024;-70
2021/05/21 03:54:06;;;;;;;4.47;2.40;;;11.00;99.90;;;;;;5070092;28;20085;-70
2021/05/21 03:56:34;;;;;;;4.47;2.55;;;10.90;99.90;;;;;;5070928;28;20020;-67
2021/05/21 03:59:00;;;;;;;3.25;2.10;;;10.90;99.90;;;;;;5076915;28;20500;-67
2021/05/21 04:01:28;;;;;;;4.70;2.40;;;10.90;99.90;;;;;;5057607;28;20032;-66
2021/05/21 04:03:56;;;;;;;5.03;2.50;;;10.90;99.90;;;;;;5068508;28;20174;-67
2021/05/21 04:06:21;;;;;;;3.97;2.40;;;11.00;99.90;;;;;;5069126;28;20032;-67
2021/05/21 04:08:47;;;;;;;4.45;2.30;;;11.00;99.90;;;;;;5072933;28;20088;-67
2021/05/21 04:11:15;;;;;;;3.65;2.25;;;11.00;99.90;;;;;;5080310;28;20024;-67
2021/05/21 04:13:41;;;;;;;4.88;2.40;;;11.00;99.90;;;;;;5078446;28;20043;-67
2021/05/21 04:16:13;;;;;;;4.57;2.55;;;11.00;99.90;;;;;;5077259;28;20601;-68
2021/05/21 04:18:39;;;;;;;;;;;11.00;99.90;;;;;;5078188;28;20031;-67
2021/05/21 04:21:06;;;;;;;5.57;2.30;;;11.00;99.90;;;;;;5077633;28;19908;-67
2021/05/21 04:23:32;;;;;;;5.22;2.45;;;11.00;99.90;;;;;;5070426;28;20307;-68
2021/05/21 04:26:01;;;;;;;4.78;2.47;;;11.00;99.90;;;;;;5069145;28;20553;-67
2021/05/21 04:28:29;;;;;;;4.13;2.30;;;11.10;99.90;;;;;;5070024;28;20043;-68
2021/05/21 04:30:57;;;;;;;3.83;2.30;;;11.10;99.90;;;;;;5070749;28;20038;-67
2021/05/21 04:33:22;;;;;;;5.05;2.30;;;11.10;99.90;;;;;;5080402;28;20028;-69
2021/05/21 04:35:51;;;;;;;3.80;2.10;;;11.20;99.90;;;;;;5079540;28;20028;-67
2021/05/21 04:38:18;;;;;;;7.95;2.42;;;11.20;99.90;;;;;;5077336;28;20609;-68
2021/05/21 04:40:44;;;;;;;4.70;2.20;;;11.30;99.90;;;;;;5075362;28;20028;-67
2021/05/21 04:43:12;;;;;;;5.47;2.35;;;11.30;99.90;;;;;;5075011;28;20033;-68
2021/05/21 04:45:40;;;;;;;3.42;2.00;;;11.20;99.90;;;;;;5076854;28;20036;-68
2021/05/21 04:48:06;;;;;;;4.90;2.25;;;11.30;99.90;;;;;;5075966;28;20119;-68
2021/05/21 04:50:34;;;;;;;4.35;2.20;;;11.40;99.90;;;;;;5059987;28;20086;-70
2021/05/21 04:52:59;;;;;;;3.92;2.10;;;11.30;99.90;;;;;;5077913;28;20020;-70
2021/05/21 04:55:27;;;;;;;3.65;2.10;;;11.30;99.90;;;;;;5074841;28;20043;-70
2021/05/21 04:57:55;;;;;;;3.95;2.10;;;11.30;99.90;;;;;;5084570;28;20154;-70
2021/05/21 05:00:23;;;;;;;3.38;1.92;;;11.40;99.90;;;;;;5069033;28;20166;-69
2021/05/21 05:02:48;;;;;;;4.57;2.10;;;11.40;99.90;;;;;;5070176;28;20710;-70
2021/05/21 05:05:14;;;;;;;4.07;2.20;;;11.50;99.90;;;;;;5068884;28;20061;-69
2021/05/21 05:07:40;;;;;;;4.20;2.33;;;11.40;99.90;;;;;;5079480;28;20231;-70
2021/05/21 05:10:05;;;;;;;5.07;2.13;;;11.50;99.90;;;;;;5075693;28;20115;-69
2021/05/21 05:12:36;;;;;;;5.13;2.05;;;11.60;99.90;;;;;;5077753;28;20020;-69
2021/05/21 05:15:07;;;;;;;4.68;1.92;;;11.60;99.90;;;;;;5080785;28;20682;-69
2021/05/21 05:17:33;;;;;;;5.63;2.30;;;11.60;99.90;;;;;;5068528;28;20040;-67
2021/05/21 05:20:03;;;;;;;6.00;2.10;;;11.60;99.90;;;;;;5077487;28;20038;-67
2021/05/21 05:22:29;;;;;;;4.05;2.13;;;11.60;99.90;;;;;;5069079;28;20067;-68
2021/05/21 05:24:54;;;;;;;4.65;2.20;;;11.70;99.90;;;;;;5071790;28;20032;-68
2021/05/21 05:27:22;;;;;;;4.57;2.30;;;11.70;99.90;;;;;;5079950;28;20094;-68
2021/05/21 05:29:48;;;;;;;3.80;1.80;;;11.80;99.90;;;;;;5075406;28;20027;-68
2021/05/21 05:32:13;;;;;;;3.28;1.90;;;11.80;99.90;;;;;;5079070;28;20029;-68
2021/05/21 05:34:41;;;;;;;4.13;2.05;;;11.90;99.90;;;;;;5075686;28;20040;-68
2021/05/21 05:37:09;;;;;;;7.25;2.80;;;11.90;99.90;;;;;;5069517;28;20358;-68
2021/05/21 05:39:37;;;;;;;3.85;2.20;;;12.00;99.90;;;;;;5068413;28;20024;-69
2021/05/21 05:42:06;;;;;;;5.32;2.42;;;12.00;99.90;;;;;;5066545;28;20024;-68
2021/05/21 05:44:32;;;;;;;4.47;2.28;;;12.10;99.90;;;;;;5069949;28;20111;-68
2021/05/21 05:46:59;;;;;;;3.60;2.25;;;12.00;99.90;;;;;;5069819;28;20028;-68
2021/05/21 05:49:25;;;;;;;4.10;2.38;;;12.10;99.90;;;;;;5069095;28;20028;-68
2021/05/21 05:51:51;;;;;;;4.45;2.00;;;12.20;99.90;;;;;;5072432;28;20029;-68
2021/05/21 05:54:16;;;;;;;6.32;2.33;;;12.20;99.90;;;;;;5077503;28;20105;-68
2021/05/21 05:56:47;;;;;;;4.28;2.20;;;12.20;99.90;;;;;;5070096;28;20429;-68
2021/05/21 05:59:15;;;;;;;5.20;2.30;;;12.30;99.90;;;;;;5067733;28;20036;-69
2021/05/21 06:01:43;;;;;;;4.55;2.47;;;12.30;99.90;;;;;;5068933;28;20109;-69
2021/05/21 06:04:11;;;;;;;4.57;2.50;;;12.40;99.90;;;;;;5066232;28;20042;-68
2021/05/21 06:06:39;;;;;;;3.95;2.25;;;12.40;99.90;;;;;;5067954;28;20070;-68
2021/05/21 06:09:08;;;;;;;4.93;2.15;;;12.50;99.90;;;;;;5073245;28;20024;-68
2021/05/21 06:11:36;;;;;;;4.20;2.00;;;12.50;99.90;;;;;;5077518;28;20032;-68
2021/05/21 06:14:03;;;;;;;5.30;2.20;;;12.60;99.90;;;;;;5076076;28;20023;-68
2021/05/21 06:16:29;;;;;;;5.95;2.20;;;12.60;99.90;;;;;;5077468;28;20058;-69
2021/05/21 06:18:57;;;;;;;5.80;2.50;;;12.60;99.90;;;;;;5077122;28;20059;-68
2021/05/21 06:21:25;;;;;;;4.32;2.05;;;12.60;99.90;;;;;;5073473;28;20358;-69
2021/05/21 06:23:53;;;;;;;6.22;2.60;;;12.70;99.90;;;;;;5077293;28;20046;-68
2021/05/21 06:28:45;;;;;;;5.95;2.60;;;12.80;99.90;;;;;;5065972;28;20089;-68
2021/05/21 06:31:13;;;;;;;5.80;2.40;;;12.80;99.90;;;;;;5069526;28;20020;-68
2021/05/21 06:33:41;;;;;;;4.55;2.20;;;12.80;99.90;;;;;;5077941;28;20032;-68
2021/05/21 06:36:09;;;;;;;4.88;2.30;;;12.80;99.90;;;;;;5076057;28;20495;-68
2021/05/21 06:38:37;;;;;;;3.80;2.30;;;12.90;99.90;;;;;;5071213;28;20039;-68
2021/05/21 06:41:03;;;;;;;6.35;2.42;;;12.80;99.70;;;;;;5069252;28;21759;-69
2021/05/21 06:43:33;;;;;;;5.55;2.10;;;13.00;99.90;;;;;;5068329;28;20027;-68
2021/05/21 06:45:59;;;;;;;3.47;2.33;;;13.00;99.70;;;;;;5073616;28;20040;-69
2021/05/21 06:48:35;;;;;;;7.18;2.20;;;13.00;98.10;;;;;;5073875;28;20024;-68
2021/05/21 06:51:05;;;;;;;4.65;2.30;;;13.10;99.90;;;;;;5072779;28;20030;-69
2021/05/21 06:53:33;;;;;;;3.63;2.00;;;13.20;99.90;;;;;;5059723;28;20025;-68
2021/05/21 06:55:58;;;;;;;5.55;2.50;;;13.20;99.90;;;;;;5069905;28;20033;-68
2021/05/21 06:58:26;;;;;;;3.90;2.10;;;13.20;99.90;;;;;;5075287;28;20039;-68
2021/05/21 07:00:56;;;;;;;5.85;2.47;;;13.30;99.90;;;;;;5071497;28;20163;-68
2021/05/21 07:03:25;;;;;;;5.15;2.20;;;13.30;99.90;;;;;;5065605;28;20040;-68
2021/05/21 07:05:53;;;;;;;3.67;2.00;;;13.30;99.00;;;;;;5071260;28;20024;-68
2021/05/21 07:08:23;;;;;;;5.00;2.10;;;13.30;95.90;;;;;;5076679;28;20029;-68
2021/05/21 07:10:52;;;;;;;5.88;2.20;;;13.30;97.90;;;;;;5058287;28;20036;-69
2021/05/21 07:13:18;;;;;;;5.30;2.10;;;13.30;94.40;;;;;;5065658;28;20025;-69
2021/05/21 07:15:44;;;;;;;4.80;2.00;;;13.40;98.20;;;;;;5054690;28;20447;-68
2021/05/21 07:18:10;;;;;;;3.70;2.08;;;13.40;97.20;;;;;;5072485;28;20104;-69
2021/05/21 07:20:41;;;;;;;3.72;1.90;;;13.40;97.50;;;;;;5075108;28;20103;-69
2021/05/21 07:23:09;;;;;;;5.40;2.13;;;13.50;99.00;;;;;;5082866;28;20047;-68
2021/05/21 07:25:37;;;;;;;5.07;2.08;;;13.50;98.30;;;;;;5083175;28;20036;-69
2021/05/21 07:28:08;;;;;;;3.55;1.90;;;13.50;97.60;;;;;;5065007;28;20078;-69
2021/05/21 07:30:36;;;;;;;3.85;2.03;;;13.50;96.70;;;;;;5067079;28;21831;-68
2021/05/21 07:33:02;;;;;;;3.90;1.90;;;13.60;93.50;;;;;;5082169;28;20016;-69
2021/05/21 07:35:30;;;;;;;5.82;2.22;;;13.60;98.30;;;;;;5085143;28;20108;-69
2021/05/21 07:37:56;;;;;;;4.18;1.83;;;13.70;98.70;;;;;;5079174;28;20231;-68
2021/05/21 07:40:23;;;;;;;5.00;1.92;;;13.70;97.80;;;;;;5081054;28;21878;-69
2021/05/21 07:42:52;;;;;;;3.60;1.80;;;13.80;95.50;;;;;;5081538;28;20028;-69
2021/05/21 07:45:20;;;;;;;3.85;1.80;;;13.80;98.50;;;;;;5067434;28;20367;-69
2021/05/21 07:47:46;;;;;;;3.70;1.77;;;13.90;96.50;;;;;;5077652;28;20107;-69
2021/05/21 07:50:14;;;;;;;4.03;1.80;;;13.80;92.30;;;;;;5059434;28;20135;-69
2021/05/21 07:52:44;;;;;;;3.72;1.70;;;13.90;93.10;;;;;;5080261;28;20020;-69
2021/05/21 07:55:10;;;;;;;6.32;2.08;;;14.00;96.60;;;;;;5081116;28;20165;-69
2021/05/21 07:57:36;;;;;;;5.72;1.90;;;14.10;98.30;;;;;;5082487;28;20024;-68
2021/05/21 08:00:04;;;;;;;4.88;2.05;;;14.00;94.50;;;;;;5078548;28;20142;-68
2021/05/21 08:02:34;;;;;;;3.55;1.65;;;14.10;94.40;;;;;;5083061;28;20151;-68
2021/05/21 08:05:02;;;;;;;4.68;1.80;;;14.10;93.90;;;;;;5079220;28;20484;-69
2021/05/21 08:07:29;;;;;;;3.95;1.70;;;14.20;93.50;;;;;;5078710;28;20393;-69
2021/05/21 08:09:55;;;;;;;3.65;1.70;;;14.20;93.70;;;;;;5078991;28;20016;-69
2021/05/21 08:12:21;;;;;;;3.42;1.50;;;14.20;92.90;;;;;;5080379;28;20054;-69
2021/05/21 08:14:49;;;;;;;4.32;1.55;;;14.10;89.50;;;;;;5065222;28;20024;-68
2021/05/21 08:17:17;;;;;;;4.80;2.00;;;14.20;90.00;;;;;;5080278;28;20044;-69
2021/05/21 08:19:45;;;;;;;3.88;1.70;;;14.10;90.00;;;;;;5080267;28;20081;-69
2021/05/21 08:22:11;;;;;;;5.85;1.75;;;14.30;93.70;;;;;;5080028;28;20044;-69
2021/05/21 08:24:38;;;;;;;3.15;1.80;;;14.20;85.10;;;;;;5077872;28;20028;-69
2021/05/21 08:27:04;;;;;;;3.92;1.73;;;14.20;85.70;;;;;;5080575;28;20020;-69
2021/05/21 08:29:33;;;;;;;5.95;1.70;;;14.20;83.80;;;;;;5078848;28;20051;-69
2021/05/21 08:32:01;;;;;;;4.40;1.50;;;14.10;86.80;;;;;;5082964;28;20549;-69
2021/05/21 08:34:30;;;;;;;4.95;1.50;;;14.20;83.80;;;;;;5082685;28;20040;-70
2021/05/21 08:37:00;;;;;;;3.20;1.38;;;14.20;85.00;;;;;;5080195;28;20166;-69
2021/05/21 08:39:26;;;;;;;2.72;1.40;;;14.20;86.10;;;;;;5077456;28;20028;-69
2021/05/21 08:41:54;;;;;;;3.75;1.90;;;14.20;83.20;;;;;;5076755;28;20017;-69
2021/05/21 08:44:20;;;;;;;6.35;1.60;;;14.40;86.40;;;;;;5078384;28;20072;-69
2021/05/21 08:46:46;;;;;;;4.35;1.65;;;14.60;91.50;;;;;;5061559;28;20050;-69
2021/05/21 08:49:12;;;;;;;5.15;1.58;;;14.60;84.70;;;;;;5076300;28;20028;-69
2021/05/21 08:51:39;;;;;;;3.88;1.33;;;14.70;88.10;;;;;;5070257;28;20449;-69
2021/05/21 08:54:09;;;;;;;4.72;2.00;;;14.80;84.10;;;;;;5078716;28;20013;-69
2021/05/21 08:56:37;;;;;;;5.53;1.60;;;14.80;77.30;;;;;;5079983;28;20036;-69
2021/05/21 08:59:02;;;;;;;4.55;1.63;;;14.80;78.40;;;;;;5079736;28;20046;-69
2021/05/21 09:01:32;;;;;;;4.65;1.48;;;14.90;77.50;;;;;;5081460;28;20020;-69
2021/05/21 09:04:02;;;;;;;4.15;1.52;;;14.80;76.90;;;;;;5079120;28;20035;-69
2021/05/21 09:06:32;;;;;;;6.35;1.60;;;14.90;82.50;;;;;;5076715;28;20032;-69
2021/05/21 09:08:59;;;;;;;2.92;1.30;;;14.90;79.70;;;;;;5077116;28;20040;-69
2021/05/21 09:11:33;;;;;;;3.33;1.35;;;15.00;77.80;;;;;;5048162;28;20119;-69
2021/05/21 09:14:04;;;;;;;5.20;1.40;;;14.90;81.30;;;;;;5068788;28;20024;-70
2021/05/21 09:16:35;;;;;;;4.85;1.80;;;14.90;76.20;;;;;;5061270;28;20020;-70
2021/05/21 09:19:04;;;;;;;5.53;1.70;;;14.60;77.20;;;;;;5096519;28;20028;-69
2021/05/21 09:21:46;;;;;;;6.32;1.65;;;14.70;79.80;;;;;;5078630;28;20036;-69
2021/05/21 09:24:11;;;;;;;4.28;1.40;;;14.80;82.20;;;;;;5076065;28;20032;-69
2021/05/21 09:26:42;;;;;;;7.80;1.65;;;14.70;79.00;;;;;;5076893;28;20044;-69
2021/05/21 09:29:09;;;;;;;4.68;1.90;;;14.80;78.80;;;;;;5078912;28;20024;-69
2021/05/21 09:31:55;;;;;;;5.18;1.50;;;14.90;80.20;;;;;;5077204;28;20508;-69
2021/05/21 09:34:32;;;;;;;5.90;1.55;;;15.00;76.80;;;;;;5060482;28;20062;-69
2021/05/21 09:37:02;;;;;;;7.95;1.50;;;15.10;78.10;;;;;;5075994;28;20024;-69
2021/05/21 09:39:30;;;;;;;3.80;1.40;;;15.10;78.20;;;;;;5076422;28;20031;-69
2021/05/21 09:41:57;;;;;;;5.40;1.70;;;15.20;80.90;;;;;;5081708;28;20034;-69
2021/05/21 09:44:27;;;;;;;5.57;1.98;;;15.20;79.00;;;;;;5077522;28;20032;-69
2021/05/21 09:46:56;;;;;;;5.72;1.80;;;15.20;77.10;;;;;;5076657;28;20036;-69
2021/05/21 09:49:34;;;;;;;6.00;1.67;;;15.20;77.50;;;;;;5063314;28;20559;-70
2021/05/21 09:52:02;;;;;;;6.82;1.88;;;15.30;77.30;;;;;;5080105;28;20028;-69
2021/05/21 09:54:47;;;;;;;6.20;1.60;;;15.50;82.20;;;;;;5080750;28;20024;-69
2021/05/21 09:57:15;;;;;;;3.83;1.60;;;15.50;74.00;;;;;;5077359;28;20438;-69
2021/05/21 09:59:43;;;;;;;5.65;2.00;;;15.70;76.90;;;;;;5060004;28;20028;-69
2021/05/21 10:02:28;;;;;;;5.60;1.88;;;15.70;73.10;;;;;;5093940;28;20029;-69
2021/05/21 10:05:00;;;;;;;6.70;1.70;;;15.60;71.80;;;;;;5076681;28;20020;-69
2021/05/21 10:07:25;;;;;;;6.60;1.60;;;15.70;74.80;;;;;;5061936;28;20069;-69
2021/05/21 10:09:53;;;;;;;6.00;1.80;;;15.70;69.70;;;;;;5076058;28;20464;-69
2021/05/21 10:12:19;;;;;;;5.47;1.70;;;15.90;70.30;;;;;;5078550;28;20115;-70
2021/05/21 10:14:48;;;;;;;5.88;2.00;;;15.90;71.00;;;;;;5080303;28;20272;-70
2021/05/21 10:17:18;;;;;;;7.05;1.90;;;15.90;69.50;;;;;;5075008;28;20116;-69
2021/05/21 10:19:45;;;;;;;7.25;2.10;;;15.80;68.80;;;;;;5074136;28;20024;-69
2021/05/21 10:22:15;;;;;;;5.78;1.83;;;15.80;67.60;;;;;;5079227;28;20044;-69
2021/05/21 10:24:45;;;;;;;6.20;1.83;;;15.90;72.80;;;;;;5068819;28;20107;-69
2021/05/21 10:27:16;;;;;;;6.80;2.13;;;15.90;65.50;;;;;;5068820;28;20028;-69
2021/05/21 10:29:48;;;;;;;8.60;2.17;;;15.90;65.60;;;;;;5069751;28;20028;-70
2021/05/21 10:32:17;;;;;;;7.82;2.20;;;16.00;66.00;;;;;;5077243;28;20024;-69
2021/05/21 10:34:49;;;;;;;8.40;2.22;;;15.90;65.70;;;;;;5079898;28;20025;-69
2021/05/21 10:37:23;;;;;;;7.35;1.92;;;16.10;66.10;;;;;;5066558;28;20033;-69
2021/05/21 10:40:13;;;;;;;8.40;2.00;;;16.20;66.20;;;;;;5078493;28;20050;-69
2021/05/21 10:42:46;;;;;;;8.18;2.20;;;16.20;65.80;;;;;;5062128;28;20056;-70
2021/05/21 10:45:17;;;;;;;8.25;2.40;;;16.00;62.20;;;;;;5068141;28;20111;-69
2021/05/21 10:47:48;;;;;;;8.20;2.38;;;16.10;64.20;;;;;;5077142;28;20032;-70
2021/05/21 10:50:18;;;;;;;10.30;2.65;;;16.10;64.10;;;;;;5075283;28;20335;-71
2021/05/21 10:53:03;;;;;;;6.13;2.00;;;15.90;64.10;;;;;;5069953;28;20426;-70
2021/05/21 10:55:56;;;;;;;8.55;2.15;;;15.80;63.50;;;;;;5078005;28;20028;-70
2021/05/21 10:58:35;;;;;;;8.75;2.08;;;15.90;66.30;;;;;;5075892;28;20471;-69
2021/05/21 11:01:10;;;;;;;10.90;2.50;;;15.80;65.80;;;;;;5071910;28;20033;-70
2021/05/21 11:04:07;;;;;;;11.73;2.58;;;15.90;66.10;;;;;;5070981;28;20032;-70
2021/05/21 11:06:40;;;;;;;7.53;2.17;;;15.90;65.30;;;;;;5076584;28;20039;-70
2021/05/21 11:09:08;;;;;;;6.63;2.03;;;15.90;65.70;;;;;;5069913;28;20059;-70
2021/05/21 11:11:55;;;;;;;7.65;2.10;;;16.10;66.90;;;;;;5063251;28;20040;-70
2021/05/21 11:14:41;;;;;;;8.00;2.40;;;16.20;66.60;;;;;;5079643;28;20035;-70
2021/05/21 11:17:14;;;;;;;7.35;2.20;;;16.40;67.00;;;;;;5076990;28;20032;-71
2021/05/21 11:19:50;;;;;;;11.38;4.63;;;16.30;63.80;;;;;;5081335;28;20032;-70
2021/05/21 11:22:19;;;;;;;9.02;2.25;;;16.30;66.40;;;;;;5056456;28;20074;-69
2021/05/21 11:24:50;;;;;;;7.55;2.08;;;16.30;64.90;;;;;;5075139;28;20035;-71
2021/05/21 11:27:16;;;;;;;8.10;2.38;;;16.30;64.50;;;;;;5070941;28;20059;-70
2021/05/21 11:29:49;;;;;;;7.63;2.00;;;16.30;64.80;;;;;;5069971;28;20120;-69
2021/05/21 11:32:18;;;;;;;8.30;2.08;;;16.30;60.00;;;;;;5061265;28;20223;-70
2021/05/21 11:34:46;;;;;;;7.25;1.73;;;16.30;62.20;;;;;;5070429;28;20023;-70
2021/05/21 11:37:27;;;;;;;9.00;2.17;;;16.30;64.30;;;;;;5071074;28;20056;-70
2021/05/21 11:39:53;;;;;;;7.50;2.40;;;16.20;62.20;;;;;;5070595;28;20064;-71
2021/05/21 11:42:20;;;;;;;7.97;2.15;;;16.20;61.50;;;;;;5069687;28;20055;-70
2021/05/21 11:44:53;;;;;;;5.80;2.22;;;16.20;64.30;;;;;;5069717;28;20043;-70
2021/05/21 11:47:24;;;;;;;8.20;2.22;;;16.20;63.50;;;;;;5068549;28;20040;-71
2021/05/21 11:49:51;;;;;;;9.23;2.30;;;16.20;63.20;;;;;;5070629;28;20028;-72
2021/05/21 11:52:16;;;;;;;7.38;2.30;;;16.10;62.80;;;;;;5070904;28;20358;-71
2021/05/21 11:54:45;;;;;;;7.30;2.13;;;16.10;63.90;;;;;;5071730;28;20035;-70
2021/05/21 11:57:17;;;;;;;7.68;2.33;;;16.10;66.10;;;;;;5071959;28;20021;-70
2021/05/21 11:59:45;;;;;;;;;;;16.20;64.10;;;;;;5071504;28;20453;-70
2021/05/21 12:02:13;;;;;;;11.05;2.65;;;16.30;62.60;;;;;;5070398;28;19916;-70
2021/05/21 12:04:42;;;;;;;9.63;2.28;;;16.40;62.30;;;;;;5068423;28;20548;-69
2021/05/21 12:07:17;;;;;;;8.85;2.13;;;16.60;60.80;;;;;;5067588;28;20032;-70
2021/05/21 12:09:55;;;;;;;6.75;1.88;;;16.90;62.10;;;;;;5069986;28;20188;-70
2021/05/21 12:12:22;;;;;;;6.07;1.90;;;17.00;59.40;;;;;;5068012;28;20473;-70
2021/05/21 12:14:47;;;;;;;9.77;2.00;;;17.10;60.60;;;;;;5071322;28;20163;-70
2021/05/21 12:17:15;;;;;;;9.05;2.22;;;17.10;58.90;;;;;;5069194;28;20032;-69
2021/05/21 12:19:42;;;;;;;8.00;1.92;;;17.20;59.20;;;;;;5059041;28;20470;-70
2021/05/21 12:22:07;;;;;;;7.25;2.10;;;17.40;60.00;;;;;;5070532;28;20132;-70
2021/05/21 12:24:40;;;;;;;8.23;1.90;;;17.30;54.90;;;;;;5076708;28;20039;-70
2021/05/21 12:27:06;;;;;;;8.60;2.25;;;17.50;57.30;;;;;;5081193;28;20028;-71
2021/05/21 12:29:35;;;;;;;7.55;2.10;;;17.30;55.00;;;;;;5076179;28;20094;-71
2021/05/21 12:32:04;;;;;;;7.82;2.15;;;17.20;52.90;;;;;;5068012;28;20071;-70
2021/05/21 12:34:37;;;;;;;7.75;2.20;;;17.20;53.60;;;;;;5067131;28;20020;-70
2021/05/21 12:37:04;;;;;;;8.10;1.83;;;17.20;53.90;;;;;;5067624;28;20111;-70
2021/05/21 12:39:40;;;;;;;6.47;2.20;;;17.20;55.00;;;;;;5069426;28;20028;-70
2021/05/21 12:42:06;;;;;;;8.48;2.15;;;17.00;56.60;;;;;;5073700;28;20118;-70
2021/05/21 12:44:35;;;;;;;8.07;2.08;;;17.00;56.50;;;;;;5067066;28;20097;-70
2021/05/21 12:47:02;;;;;;;7.45;1.92;;;17.10;57.60;;;;;;5069388;28;20156;-70
2021/05/21 12:49:35;;;;;;;6.78;1.92;;;17.00;59.70;;;;;;5066941;28;20040;-70
2021/05/21 12:52:02;;;;;;;7.85;2.15;;;17.10;62.20;;;;;;5068400;28;20464;-70
2021/05/21 12:54:35;;;;;;;7.55;2.08;;;17.20;59.00;;;;;;5070073;28;20048;-70
2021/05/21 12:57:06;;;;;;;8.13;2.28;;;17.40;62.50;;;;;;5069834;28;20027;-70